createdAt,value
2022-10-13T00:00:01.365Z,16.40
2022-10-13T00:01:01.385Z,13.40
2022-10-13T00:02:01.338Z,13.50
2022-10-13T00:03:01.319Z,16.80
2022-10-13T00:04:01.314Z,12.50
2022-10-13T00:05:01.339Z,13.10
2022-10-13T00:06:01.279Z,12.40
2022-10-13T00:07:01.269Z,15.20
2022-10-13T00:08:01.258Z,15.70
2022-10-13T00:09:01.234Z,13.60
2022-10-13T00:10:01.306Z,18.50
2022-10-13T00:11:01.241Z,15.70
2022-10-13T00:12:01.208Z,13.50
2022-10-13T00:13:01.189Z,15.90
2022-10-13T00:14:01.161Z,16.20
2022-10-13T00:15:01.198Z,14.20
2022-10-13T00:16:01.141Z,15.40
2022-10-13T00:17:01.154Z,13.90
2022-10-13T00:18:01.124Z,13.90
2022-10-13T00:19:01.114Z,18.10
2022-10-13T00:20:01.168Z,16.30
2022-10-13T00:21:01.109Z,13.60
2022-10-13T00:22:00.055Z,12.90
2022-10-13T00:23:01.076Z,14.30
2022-10-13T00:24:01.051Z,14.10
2022-10-13T00:25:01.066Z,15.20
2022-10-13T00:26:01.043Z,13.10
2022-10-13T00:27:01.012Z,13.00
2022-10-13T00:28:01.022Z,14.60
2022-10-13T00:29:01.038Z,14.10
2022-10-13T00:30:00.977Z,15.80
2022-10-13T00:31:00.965Z,14.50
2022-10-13T00:32:00.930Z,12.00
2022-10-13T00:33:00.932Z,14.40
2022-10-13T00:34:01.011Z,13.30
2022-10-13T00:35:00.886Z,17.90
2022-10-13T00:36:00.903Z,13.90
2022-10-13T00:37:00.852Z,16.00
2022-10-13T00:38:00.857Z,13.80
2022-10-13T00:39:00.833Z,17.30
2022-10-13T00:40:00.826Z,15.90
2022-10-13T00:41:00.807Z,13.40
2022-10-13T00:42:00.784Z,14.50
2022-10-13T00:43:00.791Z,14.30
2022-10-13T00:44:00.767Z,16.30
2022-10-13T00:45:00.745Z,17.60
2022-10-13T00:46:00.744Z,15.70
2022-10-13T00:47:00.728Z,17.20
2022-10-13T00:48:00.708Z,18.40
2022-10-13T00:49:00.725Z,16.50
2022-10-13T00:50:00.713Z,22.30
2022-10-13T00:51:00.731Z,19.50
2022-10-13T00:52:00.670Z,23.30
2022-10-13T00:53:00.679Z,23.40
2022-10-13T00:54:00.636Z,21.20
2022-10-13T00:55:00.628Z,20.90
2022-10-13T00:56:00.634Z,22.10
2022-10-13T00:57:00.602Z,22.00
2022-10-13T00:58:04.913Z,20.70
2022-10-13T00:59:00.564Z,21.00
2022-10-13T00:59:59.538Z,23.50
2022-10-13T01:01:00.594Z,24.10
2022-10-13T01:02:00.552Z,21.00
2022-10-13T01:03:00.535Z,21.10
2022-10-13T01:04:00.543Z,20.90
2022-10-13T01:05:00.559Z,24.20
2022-10-13T01:06:00.528Z,19.30
2022-10-13T01:07:00.570Z,28.50
2022-10-13T01:08:00.478Z,21.80
2022-10-13T01:09:00.457Z,20.70
2022-10-13T01:10:00.474Z,24.10
2022-10-13T01:11:00.430Z,21.50
2022-10-13T01:12:00.437Z,24.80
2022-10-13T01:13:00.420Z,21.50
2022-10-13T01:14:00.361Z,26.90
2022-10-13T01:15:00.377Z,25.50
2022-10-13T01:16:00.357Z,27.20
2022-10-13T01:17:00.342Z,20.70
2022-10-13T01:18:00.315Z,20.30
2022-10-13T01:19:00.305Z,21.70
2022-10-13T01:20:00.269Z,24.50
2022-10-13T01:21:00.304Z,24.50
2022-10-13T01:22:00.280Z,27.10
2022-10-13T01:23:00.248Z,25.70
2022-10-13T01:24:00.227Z,24.40
2022-10-13T01:25:00.216Z,27.10
2022-10-13T01:26:00.227Z,21.00
2022-10-13T01:27:00.205Z,23.20
2022-10-13T01:28:00.190Z,25.50
2022-10-13T01:29:00.172Z,27.30
2022-10-13T01:30:00.173Z,22.50
2022-10-13T01:31:00.155Z,27.50
2022-10-13T01:32:00.120Z,28.40
2022-10-13T01:33:00.118Z,23.00
2022-10-13T01:34:00.095Z,25.40
2022-10-13T01:35:00.100Z,26.10
2022-10-13T01:36:00.082Z,26.50
2022-10-13T01:37:00.091Z,25.00
2022-10-13T01:38:00.042Z,25.80
2022-10-13T01:39:00.083Z,25.60
2022-10-13T01:40:00.027Z,21.60
2022-10-13T01:41:00.028Z,23.60
2022-10-13T01:41:59.993Z,24.90
2022-10-13T01:42:59.992Z,22.90
2022-10-13T01:43:59.944Z,22.80
2022-10-13T01:44:59.960Z,28.10
2022-10-13T01:45:59.948Z,27.60
2022-10-13T01:46:59.935Z,28.10
2022-10-13T01:47:59.914Z,22.90
2022-10-13T01:48:59.902Z,23.40
2022-10-13T01:49:59.883Z,31.00
2022-10-13T01:50:59.911Z,28.10
2022-10-13T01:51:59.919Z,28.10
2022-10-13T01:52:59.848Z,31.80
2022-10-13T01:53:59.833Z,26.70
2022-10-13T01:54:59.919Z,30.20
2022-10-13T01:55:59.820Z,30.40
2022-10-13T01:56:59.864Z,22.60
2022-10-13T01:57:59.775Z,27.00
2022-10-13T01:58:59.770Z,31.40
2022-10-13T01:59:59.747Z,26.60
2022-10-13T02:00:59.802Z,29.50
2022-10-13T02:01:59.731Z,28.60
2022-10-13T02:02:59.715Z,27.60
2022-10-13T02:03:59.692Z,32.20
2022-10-13T02:04:59.694Z,26.80
2022-10-13T02:05:59.706Z,29.90
2022-10-13T02:06:59.662Z,28.70
2022-10-13T02:07:59.647Z,27.20
2022-10-13T02:08:59.630Z,31.00
2022-10-13T02:09:59.623Z,30.10
2022-10-13T02:10:59.626Z,30.10
2022-10-13T02:11:59.616Z,32.90
2022-10-13T02:12:59.720Z,31.90
2022-10-13T02:13:59.562Z,32.90
2022-10-13T02:14:59.565Z,26.50
2022-10-13T02:15:59.538Z,34.00
2022-10-13T02:16:59.529Z,31.70
2022-10-13T02:17:59.507Z,31.90
2022-10-13T02:18:59.495Z,36.40
2022-10-13T02:19:59.485Z,35.40
2022-10-13T02:20:59.493Z,33.80
2022-10-13T02:21:59.452Z,38.80
2022-10-13T02:22:59.450Z,32.30
2022-10-13T02:23:59.428Z,33.40
2022-10-13T02:24:59.423Z,34.10
2022-10-13T02:25:59.430Z,40.40
2022-10-13T02:26:59.394Z,31.20
2022-10-13T02:27:59.387Z,38.10
2022-10-13T02:28:59.366Z,34.30
2022-10-13T02:29:59.366Z,35.10
2022-10-13T02:30:59.364Z,39.70
2022-10-13T02:31:59.322Z,34.70
2022-10-13T02:32:59.323Z,31.30
2022-10-13T02:33:59.319Z,29.00
2022-10-13T02:34:59.283Z,29.40
2022-10-13T02:35:59.286Z,33.10
2022-10-13T02:36:59.253Z,35.60
2022-10-13T02:37:59.262Z,27.50
2022-10-13T02:38:59.228Z,31.40
2022-10-13T02:39:59.225Z,37.10
2022-10-13T02:40:59.233Z,32.50
2022-10-13T02:41:59.185Z,30.20
2022-10-13T02:42:59.183Z,27.30
2022-10-13T02:43:59.152Z,35.50
2022-10-13T02:44:59.164Z,31.50
2022-10-13T02:45:59.166Z,37.90
2022-10-13T02:46:59.161Z,32.80
2022-10-13T02:47:59.102Z,36.80
2022-10-13T02:48:59.105Z,34.80
2022-10-13T02:49:59.077Z,30.50
2022-10-13T02:50:59.087Z,33.30
2022-10-13T02:51:59.047Z,44.20
2022-10-13T02:52:59.207Z,37.90
2022-10-13T02:53:59.022Z,34.50
2022-10-13T02:54:59.019Z,37.30
2022-10-13T02:55:59.012Z,35.50
2022-10-13T02:56:59.030Z,34.60
2022-10-13T02:57:58.991Z,36.30
2022-10-13T02:58:58.999Z,39.60
2022-10-13T02:59:58.994Z,47.20
2022-10-13T03:00:58.985Z,40.80
2022-10-13T03:01:59.934Z,39.50
2022-10-13T03:02:59.000Z,31.60
2022-10-13T03:03:58.886Z,35.90
2022-10-13T03:04:58.885Z,33.80
2022-10-13T03:05:58.921Z,37.50
2022-10-13T03:06:58.871Z,33.20
2022-10-13T03:07:58.835Z,38.50
2022-10-13T03:08:58.828Z,34.00
2022-10-13T03:09:58.810Z,33.00
2022-10-13T03:10:58.832Z,37.10
2022-10-13T03:11:58.807Z,35.30
2022-10-13T03:12:58.803Z,30.30
2022-10-13T03:13:58.804Z,33.30
2022-10-13T03:14:58.756Z,29.60
2022-10-13T03:15:58.776Z,35.00
2022-10-13T03:16:58.729Z,29.30
2022-10-13T03:17:58.716Z,36.20
2022-10-13T03:18:58.705Z,36.80
2022-10-13T03:19:58.677Z,36.00
2022-10-13T03:20:58.698Z,36.80
2022-10-13T03:21:58.669Z,30.20
2022-10-13T03:22:58.680Z,30.90
2022-10-13T03:23:58.625Z,31.50
2022-10-13T03:24:58.649Z,29.50
2022-10-13T03:25:58.621Z,31.60
2022-10-13T03:26:58.603Z,27.70
2022-10-13T03:27:58.576Z,28.00
2022-10-13T03:28:58.560Z,29.30
2022-10-13T03:29:58.556Z,26.90
2022-10-13T03:30:58.543Z,34.60
2022-10-13T03:31:58.546Z,36.90
2022-10-13T03:32:58.557Z,34.70
2022-10-13T03:33:58.515Z,27.70
2022-10-13T03:34:58.479Z,30.20
2022-10-13T03:35:59.578Z,35.20
2022-10-13T03:36:58.470Z,33.60
2022-10-13T03:37:58.454Z,31.10
2022-10-13T03:38:58.424Z,32.90
2022-10-13T03:39:59.439Z,33.70
2022-10-13T03:40:58.411Z,30.50
2022-10-13T03:42:00.366Z,34.10
2022-10-13T03:42:58.390Z,31.70
2022-10-13T03:43:58.362Z,28.00
2022-10-13T03:44:58.356Z,31.20
2022-10-13T03:45:58.343Z,33.60
2022-10-13T03:46:58.342Z,33.30
2022-10-13T03:47:58.336Z,32.30
2022-10-13T03:48:58.311Z,32.60
2022-10-13T03:49:58.287Z,31.50
2022-10-13T03:50:58.282Z,35.00
2022-10-13T03:51:58.260Z,31.80
2022-10-13T03:52:58.263Z,31.60
2022-10-13T03:53:58.214Z,31.90
2022-10-13T03:54:58.208Z,31.00
2022-10-13T03:55:58.197Z,31.40
2022-10-13T03:56:58.216Z,34.40
2022-10-13T03:57:58.188Z,30.80
2022-10-13T03:58:58.199Z,33.80
2022-10-13T03:59:58.150Z,29.70
2022-10-13T04:00:58.163Z,31.60
2022-10-13T04:01:58.198Z,34.50
2022-10-13T04:02:58.107Z,35.50
2022-10-13T04:03:58.089Z,30.80
2022-10-13T04:04:58.104Z,40.80
2022-10-13T04:05:58.045Z,30.20
2022-10-13T04:06:58.076Z,27.10
2022-10-13T04:07:58.064Z,35.50
2022-10-13T04:08:58.019Z,33.20
2022-10-13T04:09:58.017Z,32.90
2022-10-13T04:10:58.009Z,34.60
2022-10-13T04:11:58.041Z,34.50
2022-10-13T04:12:57.995Z,32.90
2022-10-13T04:13:57.953Z,33.80
2022-10-13T04:14:57.955Z,36.00
2022-10-13T04:15:57.962Z,31.30
2022-10-13T04:16:57.950Z,36.10
2022-10-13T04:17:57.917Z,34.10
2022-10-13T04:18:57.897Z,29.90
2022-10-13T04:19:57.886Z,34.30
2022-10-13T04:20:57.916Z,37.00
2022-10-13T04:21:57.925Z,30.50
2022-10-13T04:22:57.856Z,33.70
2022-10-13T04:23:57.880Z,38.10
2022-10-13T04:24:57.836Z,34.40
2022-10-13T04:25:57.806Z,36.30
2022-10-13T04:26:57.816Z,33.00
2022-10-13T04:27:57.798Z,28.50
2022-10-13T04:28:57.843Z,42.40
2022-10-13T04:29:57.808Z,32.60
2022-10-13T04:30:57.755Z,35.60
2022-10-13T04:31:57.768Z,37.40
2022-10-13T04:32:57.758Z,39.00
2022-10-13T04:33:57.694Z,30.00
2022-10-13T04:34:57.687Z,32.40
2022-10-13T04:35:57.671Z,38.10
2022-10-13T04:36:57.682Z,34.00
2022-10-13T04:37:57.650Z,33.30
2022-10-13T04:38:57.629Z,28.90
2022-10-13T04:39:57.615Z,35.80
2022-10-13T04:40:57.603Z,34.10
2022-10-13T04:41:57.603Z,36.10
2022-10-13T04:42:57.587Z,33.90
2022-10-13T04:43:57.566Z,35.10
2022-10-13T04:44:57.540Z,31.90
2022-10-13T04:45:57.541Z,33.80
2022-10-13T04:46:57.557Z,34.00
2022-10-13T04:47:57.542Z,37.00
2022-10-13T04:48:57.500Z,33.90
2022-10-13T04:49:57.491Z,31.40
2022-10-13T04:50:57.471Z,32.60
2022-10-13T04:51:57.443Z,41.50
2022-10-13T04:52:57.487Z,38.40
2022-10-13T04:53:57.449Z,34.90
2022-10-13T04:54:57.412Z,32.70
2022-10-13T04:55:57.407Z,33.30
2022-10-13T04:56:57.379Z,30.30
2022-10-13T04:57:57.355Z,26.90
2022-10-13T04:58:57.352Z,34.70
2022-10-13T04:59:57.341Z,41.70
2022-10-13T05:00:57.376Z,31.70
2022-10-13T05:01:57.330Z,33.80
2022-10-13T05:02:57.296Z,39.40
2022-10-13T05:03:57.379Z,36.10
2022-10-13T05:04:57.270Z,37.00
2022-10-13T05:05:57.279Z,30.20
2022-10-13T05:07:17.104Z,30.60
2022-10-13T05:07:57.260Z,29.40
2022-10-13T05:08:57.224Z,30.80
2022-10-13T05:09:57.214Z,32.70
2022-10-13T05:10:57.222Z,32.60
2022-10-13T05:11:57.231Z,31.00
2022-10-13T05:12:57.167Z,34.10
2022-10-13T05:13:57.168Z,33.40
2022-10-13T05:14:57.134Z,31.00
2022-10-13T05:15:57.104Z,27.50
2022-10-13T05:16:57.148Z,32.40
2022-10-13T05:17:57.116Z,26.90
2022-10-13T05:18:57.092Z,30.10
2022-10-13T05:19:57.150Z,31.60
2022-10-13T05:20:57.086Z,34.70
2022-10-13T05:21:57.081Z,28.10
2022-10-13T05:22:57.087Z,31.20
2022-10-13T05:23:57.037Z,33.30
2022-10-13T05:24:57.014Z,28.90
2022-10-13T05:25:57.007Z,37.10
2022-10-13T05:26:57.000Z,30.80
2022-10-13T05:27:57.000Z,29.50
2022-10-13T05:28:56.949Z,34.50
2022-10-13T05:29:57.017Z,35.30
2022-10-13T05:30:56.923Z,34.30
2022-10-13T05:31:56.937Z,35.20
2022-10-13T05:32:56.882Z,34.10
2022-10-13T05:33:56.939Z,43.90
2022-10-13T05:34:56.865Z,43.70
2022-10-13T05:35:56.871Z,38.10
2022-10-13T05:36:56.884Z,39.80
2022-10-13T05:37:56.875Z,39.90
2022-10-13T05:38:56.812Z,37.00
2022-10-13T05:39:56.841Z,34.10
2022-10-13T05:40:56.792Z,34.80
2022-10-13T05:41:56.795Z,31.60
2022-10-13T05:42:56.778Z,34.40
2022-10-13T05:43:56.786Z,37.30
2022-10-13T05:45:17.758Z,36.80
2022-10-13T05:45:56.763Z,38.50
2022-10-13T05:46:56.733Z,31.30
2022-10-13T05:47:56.720Z,31.00
2022-10-13T05:48:56.699Z,31.90
2022-10-13T05:49:56.684Z,35.90
2022-10-13T05:50:56.690Z,34.00
2022-10-13T05:51:56.673Z,38.20
2022-10-13T05:52:56.657Z,31.00
2022-10-13T05:53:57.885Z,32.50
2022-10-13T05:54:56.622Z,30.40
2022-10-13T05:55:56.899Z,39.70
2022-10-13T05:57:11.048Z,40.90
2022-10-13T05:57:56.568Z,33.90
2022-10-13T06:00:07.536Z,29.00
2022-10-13T06:01:08.514Z,30.10
2022-10-13T06:02:08.615Z,32.00
2022-10-13T06:03:08.497Z,28.60
2022-10-13T06:04:10.191Z,29.90
2022-10-13T06:05:08.465Z,32.30
2022-10-13T06:06:08.454Z,34.40
2022-10-13T06:07:08.463Z,31.50
2022-10-13T06:08:08.463Z,34.80
2022-10-13T06:09:29.529Z,34.20
2022-10-13T06:10:08.529Z,28.20
2022-10-13T06:11:08.422Z,34.20
2022-10-13T06:12:08.387Z,31.30
2022-10-13T06:13:10.513Z,29.40
2022-10-13T06:14:08.351Z,29.70
2022-10-13T06:15:08.366Z,31.30
2022-10-13T06:16:09.537Z,32.70
2022-10-13T06:17:28.377Z,33.00
2022-10-13T06:18:08.360Z,38.30
2022-10-13T06:19:08.306Z,29.40
2022-10-13T06:20:08.274Z,30.40
2022-10-13T06:21:08.259Z,36.60
2022-10-13T06:22:08.243Z,32.10
2022-10-13T06:23:08.228Z,30.40
2022-10-13T06:24:08.213Z,35.00
2022-10-13T06:25:08.194Z,28.40
2022-10-13T06:26:08.210Z,27.30
2022-10-13T06:27:08.190Z,28.90
2022-10-13T06:28:08.156Z,32.00
2022-10-13T06:29:07.220Z,30.90
2022-10-13T06:30:08.144Z,27.90
2022-10-13T06:31:08.138Z,31.90
2022-10-13T06:32:08.134Z,35.90
2022-10-13T06:33:08.117Z,28.70
2022-10-13T06:34:08.112Z,30.30
2022-10-13T06:35:08.096Z,27.10
2022-10-13T06:36:08.079Z,32.60
2022-10-13T06:37:08.052Z,32.70
2022-10-13T06:38:08.029Z,30.30
2022-10-13T06:39:08.010Z,25.10
2022-10-13T06:40:08.028Z,25.50
2022-10-13T06:41:07.997Z,27.50
2022-10-13T06:42:07.991Z,30.10
2022-10-13T06:43:08.056Z,29.50
2022-10-13T06:44:07.998Z,26.70
2022-10-13T06:45:07.974Z,27.90
2022-10-13T06:46:07.927Z,26.90
2022-10-13T06:47:07.946Z,34.70
2022-10-13T06:48:07.908Z,27.20
2022-10-13T06:49:07.894Z,28.80
2022-10-13T06:50:07.845Z,28.50
2022-10-13T06:51:07.894Z,26.60
2022-10-13T06:52:07.849Z,30.50
2022-10-13T06:53:07.828Z,28.90
2022-10-13T06:54:07.828Z,29.70
2022-10-13T06:55:07.819Z,27.70
2022-10-13T06:56:07.873Z,28.30
2022-10-13T06:57:07.802Z,29.60
2022-10-13T06:58:07.769Z,28.90
2022-10-13T06:59:07.824Z,25.70
2022-10-13T07:00:07.733Z,32.70
2022-10-13T07:01:07.766Z,28.90
2022-10-13T07:02:07.777Z,27.80
2022-10-13T07:03:07.696Z,32.80
2022-10-13T07:04:07.679Z,30.00
2022-10-13T07:05:07.680Z,27.70
2022-10-13T07:06:07.723Z,27.90
2022-10-13T07:07:07.645Z,24.60
2022-10-13T07:08:07.697Z,27.70
2022-10-13T07:09:07.611Z,23.00
2022-10-13T07:10:07.601Z,26.50
2022-10-13T07:11:10.597Z,26.80
2022-10-13T07:12:07.632Z,26.60
2022-10-13T07:13:07.689Z,25.90
2022-10-13T07:14:07.532Z,22.70
2022-10-13T07:15:07.550Z,24.30
2022-10-13T07:16:07.546Z,23.50
2022-10-13T07:17:07.513Z,27.20
2022-10-13T07:18:07.534Z,20.70
2022-10-13T07:19:07.547Z,22.50
2022-10-13T07:20:07.625Z,23.80
2022-10-13T07:21:07.599Z,25.80
2022-10-13T07:22:07.493Z,21.60
2022-10-13T07:23:07.498Z,24.20
2022-10-13T07:24:07.520Z,20.30
2022-10-13T07:25:07.421Z,21.80
2022-10-13T07:26:07.436Z,21.60
2022-10-13T07:27:08.002Z,24.10
2022-10-13T07:28:07.366Z,27.10
2022-10-13T07:29:07.431Z,32.20
2022-10-13T07:30:07.334Z,25.40
2022-10-13T07:31:07.378Z,22.40
2022-10-13T07:32:07.376Z,20.70
2022-10-13T07:33:07.300Z,25.30
2022-10-13T07:34:07.425Z,24.90
2022-10-13T07:35:07.277Z,24.60
2022-10-13T07:36:07.368Z,26.10
2022-10-13T07:37:07.255Z,20.10
2022-10-13T07:38:07.268Z,23.80
2022-10-13T07:39:07.298Z,26.50
2022-10-13T07:40:07.391Z,27.20
2022-10-13T07:41:07.249Z,25.90
2022-10-13T07:42:07.160Z,23.60
2022-10-13T07:43:07.240Z,25.70
2022-10-13T07:44:07.133Z,23.70
2022-10-13T07:45:07.130Z,22.30
2022-10-13T07:46:07.135Z,22.30
2022-10-13T07:47:07.139Z,24.80
2022-10-13T07:48:07.151Z,20.70
2022-10-13T07:49:07.074Z,23.70
2022-10-13T07:50:07.059Z,19.90
2022-10-13T07:51:07.088Z,24.90
2022-10-13T07:52:07.048Z,23.70
2022-10-13T07:53:07.018Z,30.70
2022-10-13T07:54:07.000Z,23.90
2022-10-13T07:55:06.987Z,24.70
2022-10-13T07:56:07.099Z,24.80
2022-10-13T07:57:07.021Z,26.80
2022-10-13T07:58:07.053Z,26.00
2022-10-13T07:59:06.954Z,23.00
2022-10-13T08:00:06.933Z,17.90
2022-10-13T08:01:06.912Z,17.90
2022-10-13T08:02:06.925Z,22.90
2022-10-13T08:03:06.889Z,18.10
2022-10-13T08:04:06.911Z,22.10
2022-10-13T08:05:06.865Z,16.30
2022-10-13T08:06:06.844Z,23.90
2022-10-13T08:07:06.852Z,21.90
2022-10-13T08:08:06.817Z,19.40
2022-10-13T08:09:06.833Z,21.10
2022-10-13T08:10:06.790Z,24.40
2022-10-13T08:11:06.787Z,25.60
2022-10-13T08:12:06.795Z,18.40
2022-10-13T08:13:06.791Z,22.00
2022-10-13T08:14:06.737Z,27.10
2022-10-13T08:15:06.874Z,18.30
2022-10-13T08:16:06.723Z,19.50
2022-10-13T08:17:06.725Z,16.00
2022-10-13T08:18:06.809Z,19.10
2022-10-13T08:19:06.727Z,19.20
2022-10-13T08:20:06.699Z,22.40
2022-10-13T08:26:05.001Z,20.60
2022-10-13T08:26:46.678Z,19.30
2022-10-13T08:27:51.346Z,17.50
2022-10-13T08:29:02.885Z,21.70
2022-10-13T08:29:46.670Z,20.60
2022-10-13T08:30:46.701Z,24.20
2022-10-13T08:34:15.632Z,18.70
2022-10-13T08:37:47.975Z,18.90
2022-10-13T08:38:46.635Z,19.80
2022-10-13T08:39:46.591Z,19.20
2022-10-13T08:40:46.578Z,17.40
2022-10-13T08:41:47.690Z,17.20
2022-10-13T08:45:41.384Z,21.10
2022-10-13T08:46:16.554Z,19.70
2022-10-13T08:47:16.536Z,21.00
2022-10-13T08:50:45.526Z,21.60
2022-10-13T08:52:10.341Z,20.00
2022-10-13T08:52:46.495Z,19.40
2022-10-13T08:53:46.580Z,16.00
2022-10-13T08:57:44.158Z,20.20
2022-10-13T08:58:45.140Z,19.00
2022-10-13T08:59:45.149Z,22.20
2022-10-13T09:00:45.139Z,18.60
2022-10-13T09:01:45.184Z,20.70
2022-10-13T09:02:45.114Z,19.50
2022-10-13T09:03:45.076Z,18.40
2022-10-13T09:04:45.076Z,19.70
2022-10-13T09:05:45.058Z,20.30
2022-10-13T09:06:45.018Z,17.90
2022-10-13T09:07:45.057Z,20.40
2022-10-13T09:08:45.007Z,25.80
2022-10-13T09:09:44.991Z,17.40
2022-10-13T09:10:44.998Z,21.60
2022-10-13T09:11:44.999Z,22.40
2022-10-13T09:12:44.951Z,23.50
2022-10-13T09:13:44.940Z,21.10
2022-10-13T09:14:44.918Z,24.40
2022-10-13T09:15:44.910Z,21.50
2022-10-13T09:16:44.885Z,24.80
2022-10-13T09:17:44.888Z,21.10
2022-10-13T09:18:44.861Z,18.80
2022-10-13T09:19:44.847Z,16.40
2022-10-13T09:20:44.851Z,22.20
2022-10-13T09:21:44.827Z,22.20
2022-10-13T09:22:44.841Z,19.50
2022-10-13T09:23:44.803Z,22.10
2022-10-13T09:24:44.773Z,18.30
2022-10-13T09:25:44.788Z,18.20
2022-10-13T09:26:44.761Z,19.70
2022-10-13T09:27:44.931Z,21.30
2022-10-13T09:28:44.794Z,17.60
2022-10-13T09:29:44.719Z,21.00
2022-10-13T09:30:44.719Z,25.50
2022-10-13T09:31:44.679Z,18.60
2022-10-13T09:32:44.677Z,17.60
2022-10-13T09:33:44.686Z,18.20
2022-10-13T09:34:44.646Z,21.20
2022-10-13T09:35:44.640Z,20.50
2022-10-13T09:36:44.616Z,19.60
2022-10-13T09:37:44.638Z,20.10
2022-10-13T09:38:44.605Z,20.90
2022-10-13T09:39:44.608Z,17.40
2022-10-13T09:40:44.607Z,20.50
2022-10-13T09:41:44.561Z,25.30
2022-10-13T09:42:44.591Z,20.80
2022-10-13T09:43:44.574Z,19.00
2022-10-13T09:44:44.548Z,19.40
2022-10-13T09:45:44.516Z,22.70
2022-10-13T09:46:44.532Z,19.50
2022-10-13T09:47:44.500Z,20.90
2022-10-13T09:48:44.466Z,23.60
2022-10-13T09:49:44.460Z,26.90
2022-10-13T09:50:44.439Z,25.50
2022-10-13T09:51:44.429Z,23.60
2022-10-13T09:52:44.411Z,25.50
2022-10-13T09:53:44.414Z,24.40
2022-10-13T09:54:44.386Z,25.10
2022-10-13T09:55:44.366Z,22.60
2022-10-13T09:56:44.361Z,24.30
2022-10-13T09:57:44.347Z,29.50
2022-10-13T09:59:43.337Z,20.90
2022-10-13T10:00:44.306Z,24.30
2022-10-13T10:01:44.292Z,29.10
2022-10-13T10:02:44.297Z,26.10
2022-10-13T10:03:44.315Z,28.40
2022-10-13T10:04:44.256Z,25.90
2022-10-13T10:05:44.247Z,29.20
2022-10-13T10:06:44.224Z,28.80
2022-10-13T10:07:44.217Z,24.20
2022-10-13T10:09:02.285Z,23.70
2022-10-13T10:09:44.198Z,29.80
2022-10-13T10:10:44.169Z,19.10
2022-10-13T10:11:44.148Z,25.10
2022-10-13T10:12:44.163Z,23.00
2022-10-13T10:13:44.139Z,24.60
2022-10-13T10:14:44.119Z,22.00
2022-10-13T10:15:44.168Z,20.30
2022-10-13T10:16:44.093Z,23.10
2022-10-13T10:17:44.086Z,17.10
2022-10-13T10:18:44.080Z,18.70
2022-10-13T10:19:44.052Z,20.30
2022-10-13T10:20:44.038Z,25.30
2022-10-13T10:21:44.037Z,27.00
2022-10-13T10:22:44.027Z,21.90
2022-10-13T10:23:44.014Z,20.70
2022-10-13T10:24:43.979Z,19.90
2022-10-13T10:25:43.992Z,22.40
2022-10-13T10:26:43.951Z,21.50
